sensor_id;sensor_type;location;lat;lon;timestamp;temperature;humidity
17381;DHT22;8808;52.478;13.378;2023-06-14T00:01:22;15.70;99.90
17381;DHT22;8808;52.478;13.378;2023-06-14T00:03:49;15.80;99.90
17381;DHT22;8808;52.478;13.378;2023-06-14T00:06:16;15.90;99.90
17381;DHT22;8808;52.478;13.378;2023-06-14T00:08:43;15.80;99.90
17381;DHT22;8808;52.478;13.378;2023-06-14T00:11:11;15.80;99.90
17381;DHT22;8808;52.478;13.378;2023-06-14T00:13:39;15.80;99.90
17381;DHT22;8808;52.478;13.378;2023-06-14T00:16:06;15.80;99.90
17381;DHT22;8808;52.478;13.378;2023-06-14T00:18:33;15.70;99.90
17381;DHT22;8808;52.478;13.378;2023-06-14T00:21:00;15.70;99.90
17381;DHT22;8808;52.478;13.378;2023-06-14T00:23:28;15.60;99.90
17381;DHT22;8808;52.478;13.378;2023-06-14T00:25:55;15.70;99.90
17381;DHT22;8808;52.478;13.378;2023-06-14T00:28:23;15.70;99.90
17381;DHT22;8808;52.478;13.378;2023-06-14T00:30:51;15.70;99.90
17381;DHT22;8808;52.478;13.378;2023-06-14T00:33:18;15.50;99.90
17381;DHT22;8808;52.478;13.378;2023-06-14T00:35:45;15.60;99.90
17381;DHT22;8808;52.478;13.378;2023-06-14T00:38:12;15.60;99.90
17381;DHT22;8808;52.478;13.378;2023-06-14T00:40:39;15.60;99.90
17381;DHT22;8808;52.478;13.378;2023-06-14T00:43:06;15.50;99.90
17381;DHT22;8808;52.478;13.378;2023-06-14T00:45:35;15.60;99.90
17381;DHT22;8808;52.478;13.378;2023-06-14T00:48:02;15.50;99.90
17381;DHT22;8808;52.478;13.378;2023-06-14T00:50:30;15.40;99.90
17381;DHT22;8808;52.478;13.378;2023-06-14T00:52:58;15.60;99.90
17381;DHT22;8808;52.478;13.378;2023-06-14T00:55:26;15.50;99.90
17381;DHT22;8808;52.478;13.378;2023-06-14T00:57:54;15.40;99.90
17381;DHT22;8808;52.478;13.378;2023-06-14T01:00:21;15.30;99.90
17381;DHT22;8808;52.478;13.378;2023-06-14T01:03:08;15.30;99.90
17381;DHT22;8808;52.478;13.378;2023-06-14T01:05:39;15.30;99.90
17381;DHT22;8808;52.478;13.378;2023-06-14T01:08:18;15.40;99.90
17381;DHT22;8808;52.478;13.378;2023-06-14T01:10:52;15.30;99.90
17381;DHT22;8808;52.478;13.378;2023-06-14T01:13:21;15.30;99.90
17381;DHT22;8808;52.478;13.378;2023-06-14T01:15:51;15.20;99.90
17381;DHT22;8808;52.478;13.378;2023-06-14T01:18:20;15.30;99.90
17381;DHT22;8808;52.478;13.378;2023-06-14T01:20:52;15.20;99.90
17381;DHT22;8808;52.478;13.378;2023-06-14T01:23:23;15.30;99.90
17381;DHT22;8808;52.478;13.378;2023-06-14T01:25:50;15.10;99.90
17381;DHT22;8808;52.478;13.378;2023-06-14T01:28:20;15.10;99.90
17381;DHT22;8808;52.478;13.378;2023-06-14T01:30:49;15.20;99.90
17381;DHT22;8808;52.478;13.378;2023-06-14T01:33:20;15.20;99.90
17381;DHT22;8808;52.478;13.378;2023-06-14T01:35:49;15.00;99.90
17381;DHT22;8808;52.478;13.378;2023-06-14T01:38:19;15.10;99.90
17381;DHT22;8808;52.478;13.378;2023-06-14T01:40:50;14.90;99.90
17381;DHT22;8808;52.478;13.378;2023-06-14T01:43:18;15.10;99.90
17381;DHT22;8808;52.478;13.378;2023-06-14T01:45:47;14.90;99.90
17381;DHT22;8808;52.478;13.378;2023-06-14T01:48:15;15.00;99.90
17381;DHT22;8808;52.478;13.378;2023-06-14T01:50:43;14.90;99.90
17381;DHT22;8808;52.478;13.378;2023-06-14T01:53:10;15.10;99.90
17381;DHT22;8808;52.478;13.378;2023-06-14T01:55:37;15.00;99.90
17381;DHT22;8808;52.478;13.378;2023-06-14T01:58:10;14.90;99.90
17381;DHT22;8808;52.478;13.378;2023-06-14T02:00:37;15.00;99.90
17381;DHT22;8808;52.478;13.378;2023-06-14T02:03:04;14.90;99.90
17381;DHT22;8808;52.478;13.378;2023-06-14T02:05:31;15.00;99.90
17381;DHT22;8808;52.478;13.378;2023-06-14T02:08:00;15.00;99.90
17381;DHT22;8808;52.478;13.378;2023-06-14T02:10:27;14.90;99.90
17381;DHT22;8808;52.478;13.378;2023-06-14T02:12:54;14.90;99.90
17381;DHT22;8808;52.478;13.378;2023-06-14T02:15:22;14.70;99.90
17381;DHT22;8808;52.478;13.378;2023-06-14T02:17:49;14.70;99.90
17381;DHT22;8808;52.478;13.378;2023-06-14T02:20:17;14.90;99.90
17381;DHT22;8808;52.478;13.378;2023-06-14T02:22:44;14.90;99.90
17381;DHT22;8808;52.478;13.378;2023-06-14T02:25:11;14.70;99.90
17381;DHT22;8808;52.478;13.378;2023-06-14T02:27:38;14.90;99.90
17381;DHT22;8808;52.478;13.378;2023-06-14T02:30:06;14.70;99.90
17381;DHT22;8808;52.478;13.378;2023-06-14T02:32:35;14.80;99.90
17381;DHT22;8808;52.478;13.378;2023-06-14T02:35:02;14.80;99.90
17381;DHT22;8808;52.478;13.378;2023-06-14T02:37:29;14.80;99.90
17381;DHT22;8808;52.478;13.378;2023-06-14T02:39:56;14.80;99.90
17381;DHT22;8808;52.478;13.378;2023-06-14T02:42:23;14.70;99.90
17381;DHT22;8808;52.478;13.378;2023-06-14T02:44:50;14.80;99.90
17381;DHT22;8808;52.478;13.378;2023-06-14T02:47:17;14.80;99.90
17381;DHT22;8808;52.478;13.378;2023-06-14T02:49:46;14.80;99.90
17381;DHT22;8808;52.478;13.378;2023-06-14T02:52:13;14.80;99.90
17381;DHT22;8808;52.478;13.378;2023-06-14T02:54:40;14.70;99.90
17381;DHT22;8808;52.478;13.378;2023-06-14T02:57:07;14.70;99.90
17381;DHT22;8808;52.478;13.378;2023-06-14T02:59:34;14.80;99.90
17381;DHT22;8808;52.478;13.378;2023-06-14T03:02:01;14.70;99.90
17381;DHT22;8808;52.478;13.378;2023-06-14T03:04:28;14.80;99.90
17381;DHT22;8808;52.478;13.378;2023-06-14T03:07:04;14.80;99.90
17381;DHT22;8808;52.478;13.378;2023-06-14T03:09:35;14.80;99.90
17381;DHT22;8808;52.478;13.378;2023-06-14T03:12:02;14.70;99.90
17381;DHT22;8808;52.478;13.378;2023-06-14T03:14:30;14.70;99.90
17381;DHT22;8808;52.478;13.378;2023-06-14T03:16:57;14.70;99.90
17381;DHT22;8808;52.478;13.378;2023-06-14T03:19:24;14.70;99.90
17381;DHT22;8808;52.478;13.378;2023-06-14T03:21:52;14.70;99.90
17381;DHT22;8808;52.478;13.378;2023-06-14T03:24:23;14.70;99.90
17381;DHT22;8808;52.478;13.378;2023-06-14T03:26:52;14.80;99.90
17381;DHT22;8808;52.478;13.378;2023-06-14T03:29:19;14.70;99.90
17381;DHT22;8808;52.478;13.378;2023-06-14T03:31:57;14.70;99.90
17381;DHT22;8808;52.478;13.378;2023-06-14T03:34:24;14.70;99.90
17381;DHT22;8808;52.478;13.378;2023-06-14T03:36:51;14.70;99.90
17381;DHT22;8808;52.478;13.378;2023-06-14T03:39:18;14.70;99.90
17381;DHT22;8808;52.478;13.378;2023-06-14T03:41:47;14.70;99.90
17381;DHT22;8808;52.478;13.378;2023-06-14T03:44:15;14.70;99.90
17381;DHT22;8808;52.478;13.378;2023-06-14T03:46:43;14.60;99.90
17381;DHT22;8808;52.478;13.378;2023-06-14T03:49:10;14.70;99.90
17381;DHT22;8808;52.478;13.378;2023-06-14T03:51:38;14.70;99.90
17381;DHT22;8808;52.478;13.378;2023-06-14T03:54:06;14.60;99.90
17381;DHT22;8808;52.478;13.378;2023-06-14T03:56:33;14.50;99.90
17381;DHT22;8808;52.478;13.378;2023-06-14T03:59:02;14.60;99.90
17381;DHT22;8808;52.478;13.378;2023-06-14T04:01:29;14.50;99.90
17381;DHT22;8808;52.478;13.378;2023-06-14T04:03:57;14.60;99.90
17381;DHT22;8808;52.478;13.378;2023-06-14T04:06:24;14.70;99.90
17381;DHT22;8808;52.478;13.378;2023-06-14T04:08:58;14.80;99.90
17381;DHT22;8808;52.478;13.378;2023-06-14T04:11:29;14.90;99.90
17381;DHT22;8808;52.478;13.378;2023-06-14T04:13:56;15.10;99.90
17381;DHT22;8808;52.478;13.378;2023-06-14T04:16:24;15.20;99.90
17381;DHT22;8808;52.478;13.378;2023-06-14T04:18:51;15.30;99.90
17381;DHT22;8808;52.478;13.378;2023-06-14T04:21:22;15.40;99.90
17381;DHT22;8808;52.478;13.378;2023-06-14T04:23:50;15.30;99.90
17381;DHT22;8808;52.478;13.378;2023-06-14T04:26:18;15.50;99.90
17381;DHT22;8808;52.478;13.378;2023-06-14T04:28:46;15.60;99.90
17381;DHT22;8808;52.478;13.378;2023-06-14T04:31:13;15.80;99.90
17381;DHT22;8808;52.478;13.378;2023-06-14T04:33:43;15.90;99.90
17381;DHT22;8808;52.478;13.378;2023-06-14T04:36:12;15.90;99.90
17381;DHT22;8808;52.478;13.378;2023-06-14T04:38:39;16.10;99.90
17381;DHT22;8808;52.478;13.378;2023-06-14T04:41:06;16.20;99.90
17381;DHT22;8808;52.478;13.378;2023-06-14T04:43:37;16.40;99.90
17381;DHT22;8808;52.478;13.378;2023-06-14T04:46:04;16.50;99.90
17381;DHT22;8808;52.478;13.378;2023-06-14T04:48:36;16.60;99.90
17381;DHT22;8808;52.478;13.378;2023-06-14T04:51:08;16.60;99.90
17381;DHT22;8808;52.478;13.378;2023-06-14T04:53:35;16.80;99.90
17381;DHT22;8808;52.478;13.378;2023-06-14T04:56:02;16.90;99.90
17381;DHT22;8808;52.478;13.378;2023-06-14T04:58:29;16.80;99.90
17381;DHT22;8808;52.478;13.378;2023-06-14T05:00:57;17.00;99.90
17381;DHT22;8808;52.478;13.378;2023-06-14T05:03:24;16.90;99.90
17381;DHT22;8808;52.478;13.378;2023-06-14T05:05:52;16.90;99.90
17381;DHT22;8808;52.478;13.378;2023-06-14T05:08:21;17.10;99.90
17381;DHT22;8808;52.478;13.378;2023-06-14T05:10:50;17.00;99.90
17381;DHT22;8808;52.478;13.378;2023-06-14T05:13:17;17.20;99.90
17381;DHT22;8808;52.478;13.378;2023-06-14T05:15:44;16.80;99.90
17381;DHT22;8808;52.478;13.378;2023-06-14T05:18:11;16.60;99.90
17381;DHT22;8808;52.478;13.378;2023-06-14T05:20:38;16.50;99.90
17381;DHT22;8808;52.478;13.378;2023-06-14T05:23:07;16.40;99.90
17381;DHT22;8808;52.478;13.378;2023-06-14T05:25:35;16.40;99.90
17381;DHT22;8808;52.478;13.378;2023-06-14T05:28:03;16.40;99.90
17381;DHT22;8808;52.478;13.378;2023-06-14T05:30:30;16.40;99.90
17381;DHT22;8808;52.478;13.378;2023-06-14T05:32:59;16.40;99.90
17381;DHT22;8808;52.478;13.378;2023-06-14T05:35:26;16.60;99.90
17381;DHT22;8808;52.478;13.378;2023-06-14T05:37:53;16.60;99.90
17381;DHT22;8808;52.478;13.378;2023-06-14T05:40:20;16.60;99.90
17381;DHT22;8808;52.478;13.378;2023-06-14T05:42:49;16.90;99.90
17381;DHT22;8808;52.478;13.378;2023-06-14T05:45:16;16.80;99.90
17381;DHT22;8808;52.478;13.378;2023-06-14T05:47:43;16.90;99.90
17381;DHT22;8808;52.478;13.378;2023-06-14T05:50:10;16.80;99.90
17381;DHT22;8808;52.478;13.378;2023-06-14T05:52:37;16.70;99.90
17381;DHT22;8808;52.478;13.378;2023-06-14T05:55:04;16.80;99.90
17381;DHT22;8808;52.478;13.378;2023-06-14T05:57:31;16.80;99.90
17381;DHT22;8808;52.478;13.378;2023-06-14T06:00:00;16.80;99.90
17381;DHT22;8808;52.478;13.378;2023-06-14T06:02:28;16.60;99.90
17381;DHT22;8808;52.478;13.378;2023-06-14T06:04:55;16.60;99.90
17381;DHT22;8808;52.478;13.378;2023-06-14T06:07:22;16.60;99.90
17381;DHT22;8808;52.478;13.378;2023-06-14T06:09:49;16.50;99.90
17381;DHT22;8808;52.478;13.378;2023-06-14T06:12:16;16.60;99.90
17381;DHT22;8808;52.478;13.378;2023-06-14T06:14:43;16.70;99.90
17381;DHT22;8808;52.478;13.378;2023-06-14T06:17:11;16.80;99.90
17381;DHT22;8808;52.478;13.378;2023-06-14T06:19:38;16.80;99.90
17381;DHT22;8808;52.478;13.378;2023-06-14T06:22:05;16.70;99.90
17381;DHT22;8808;52.478;13.378;2023-06-14T06:24:33;16.80;99.90
17381;DHT22;8808;52.478;13.378;2023-06-14T06:27:00;16.80;99.90
17381;DHT22;8808;52.478;13.378;2023-06-14T06:29:28;16.80;99.90
17381;DHT22;8808;52.478;13.378;2023-06-14T06:31:55;16.80;99.90
17381;DHT22;8808;52.478;13.378;2023-06-14T06:34:23;16.80;99.90
17381;DHT22;8808;52.478;13.378;2023-06-14T06:36:50;16.90;99.90
17381;DHT22;8808;52.478;13.378;2023-06-14T06:39:17;16.80;99.90
17381;DHT22;8808;52.478;13.378;2023-06-14T06:41:44;16.70;99.90
17381;DHT22;8808;52.478;13.378;2023-06-14T06:44:11;16.50;99.90
17381;DHT22;8808;52.478;13.378;2023-06-14T06:46:38;16.60;99.90
17381;DHT22;8808;52.478;13.378;2023-06-14T06:49:06;16.70;99.90
17381;DHT22;8808;52.478;13.378;2023-06-14T06:51:35;16.70;99.90
17381;DHT22;8808;52.478;13.378;2023-06-14T06:54:02;17.10;99.90
17381;DHT22;8808;52.478;13.378;2023-06-14T06:56:29;17.00;99.90
17381;DHT22;8808;52.478;13.378;2023-06-14T06:58:57;17.00;99.90
17381;DHT22;8808;52.478;13.378;2023-06-14T07:01:24;17.00;99.90
17381;DHT22;8808;52.478;13.378;2023-06-14T07:03:51;17.10;99.90
17381;DHT22;8808;52.478;13.378;2023-06-14T07:06:18;17.30;99.90
17381;DHT22;8808;52.478;13.378;2023-06-14T07:08:47;17.20;99.90
17381;DHT22;8808;52.478;13.378;2023-06-14T07:11:14;17.60;99.90
17381;DHT22;8808;52.478;13.378;2023-06-14T07:13:41;17.70;99.90
17381;DHT22;8808;52.478;13.378;2023-06-14T07:16:08;17.70;99.90
17381;DHT22;8808;52.478;13.378;2023-06-14T07:18:36;17.80;99.90
17381;DHT22;8808;52.478;13.378;2023-06-14T07:21:03;18.10;99.90
17381;DHT22;8808;52.478;13.378;2023-06-14T07:23:30;18.10;99.90
17381;DHT22;8808;52.478;13.378;2023-06-14T07:25:58;17.90;99.90
17381;DHT22;8808;52.478;13.378;2023-06-14T07:28:25;17.80;99.90
17381;DHT22;8808;52.478;13.378;2023-06-14T07:30:52;18.00;99.90
17381;DHT22;8808;52.478;13.378;2023-06-14T07:33:19;18.10;99.90
17381;DHT22;8808;52.478;13.378;2023-06-14T07:35:46;18.20;99.90
17381;DHT22;8808;52.478;13.378;2023-06-14T07:38:13;18.10;99.90
17381;DHT22;8808;52.478;13.378;2023-06-14T07:40:40;18.30;99.90
17381;DHT22;8808;52.478;13.378;2023-06-14T07:43:08;18.40;99.90
17381;DHT22;8808;52.478;13.378;2023-06-14T07:45:37;18.70;99.90
17381;DHT22;8808;52.478;13.378;2023-06-14T07:48:04;18.80;99.90
17381;DHT22;8808;52.478;13.378;2023-06-14T07:50:31;18.80;99.90
17381;DHT22;8808;52.478;13.378;2023-06-14T07:52:58;18.60;99.90
17381;DHT22;8808;52.478;13.378;2023-06-14T07:55:25;18.60;99.90
17381;DHT22;8808;52.478;13.378;2023-06-14T07:57:52;18.60;99.90
17381;DHT22;8808;52.478;13.378;2023-06-14T08:00:21;18.50;99.90
17381;DHT22;8808;52.478;13.378;2023-06-14T08:02:48;18.70;99.90
17381;DHT22;8808;52.478;13.378;2023-06-14T08:05:16;18.70;99.90
17381;DHT22;8808;52.478;13.378;2023-06-14T08:07:43;18.90;99.90
17381;DHT22;8808;52.478;13.378;2023-06-14T08:10:10;19.00;99.90
17381;DHT22;8808;52.478;13.378;2023-06-14T08:12:37;18.90;99.90
17381;DHT22;8808;52.478;13.378;2023-06-14T08:15:04;18.80;99.90
17381;DHT22;8808;52.478;13.378;2023-06-14T08:17:33;18.70;99.90
17381;DHT22;8808;52.478;13.378;2023-06-14T08:20:00;18.60;99.90
17381;DHT22;8808;52.478;13.378;2023-06-14T08:22:27;18.90;99.90
17381;DHT22;8808;52.478;13.378;2023-06-14T08:24:57;19.00;99.90
17381;DHT22;8808;52.478;13.378;2023-06-14T08:27:25;19.10;99.90
17381;DHT22;8808;52.478;13.378;2023-06-14T08:29:52;19.00;99.90
17381;DHT22;8808;52.478;13.378;2023-06-14T08:32:19;18.90;99.90
17381;DHT22;8808;52.478;13.378;2023-06-14T08:34:47;19.10;99.90
17381;DHT22;8808;52.478;13.378;2023-06-14T08:37:14;19.40;99.90
17381;DHT22;8808;52.478;13.378;2023-06-14T08:39:41;19.60;99.90
17381;DHT22;8808;52.478;13.378;2023-06-14T08:42:09;19.30;99.90
17381;DHT22;8808;52.478;13.378;2023-06-14T08:44:37;19.20;99.90
17381;DHT22;8808;52.478;13.378;2023-06-14T08:47:06;19.20;99.90
17381;DHT22;8808;52.478;13.378;2023-06-14T08:49:34;19.20;99.90
17381;DHT22;8808;52.478;13.378;2023-06-14T08:52:05;19.30;99.90
17381;DHT22;8808;52.478;13.378;2023-06-14T08:54:36;19.40;99.90
17381;DHT22;8808;52.478;13.378;2023-06-14T08:57:10;19.50;99.90
17381;DHT22;8808;52.478;13.378;2023-06-14T08:59:45;19.10;99.90
17381;DHT22;8808;52.478;13.378;2023-06-14T09:02:14;19.10;99.90
17381;DHT22;8808;52.478;13.378;2023-06-14T09:04:43;19.20;99.90
17381;DHT22;8808;52.478;13.378;2023-06-14T09:07:12;19.30;99.90
17381;DHT22;8808;52.478;13.378;2023-06-14T09:09:40;19.30;99.90
17381;DHT22;8808;52.478;13.378;2023-06-14T09:12:08;19.50;99.90
17381;DHT22;8808;52.478;13.378;2023-06-14T09:14:37;19.50;99.90
17381;DHT22;8808;52.478;13.378;2023-06-14T09:17:06;19.60;99.90
17381;DHT22;8808;52.478;13.378;2023-06-14T09:19:34;19.80;99.90
17381;DHT22;8808;52.478;13.378;2023-06-14T09:22:03;19.90;99.90
17381;DHT22;8808;52.478;13.378;2023-06-14T09:24:32;20.10;99.90
17381;DHT22;8808;52.478;13.378;2023-06-14T09:26:59;19.90;99.90
17381;DHT22;8808;52.478;13.378;2023-06-14T09:29:26;20.00;99.90
17381;DHT22;8808;52.478;13.378;2023-06-14T09:31:53;20.10;99.90
17381;DHT22;8808;52.478;13.378;2023-06-14T09:34:21;20.00;99.90
17381;DHT22;8808;52.478;13.378;2023-06-14T09:36:49;20.00;99.90
17381;DHT22;8808;52.478;13.378;2023-06-14T09:39:17;20.00;99.90
17381;DHT22;8808;52.478;13.378;2023-06-14T09:41:46;20.00;99.90
17381;DHT22;8808;52.478;13.378;2023-06-14T09:44:13;20.10;99.90
17381;DHT22;8808;52.478;13.378;2023-06-14T09:46:39;20.10;99.90
17381;DHT22;8808;52.478;13.378;2023-06-14T09:49:08;20.30;99.90
17381;DHT22;8808;52.478;13.378;2023-06-14T09:51:40;20.30;99.90
17381;DHT22;8808;52.478;13.378;2023-06-14T09:54:14;20.10;99.90
17381;DHT22;8808;52.478;13.378;2023-06-14T09:56:46;20.10;99.90
17381;DHT22;8808;52.478;13.378;2023-06-14T09:59:17;20.00;99.90
17381;DHT22;8808;52.478;13.378;2023-06-14T10:01:46;20.10;99.90
17381;DHT22;8808;52.478;13.378;2023-06-14T10:04:15;20.20;99.90
17381;DHT22;8808;52.478;13.378;2023-06-14T10:06:45;20.20;99.90
17381;DHT22;8808;52.478;13.378;2023-06-14T10:09:12;20.30;99.90
17381;DHT22;8808;52.478;13.378;2023-06-14T10:11:40;20.30;99.90
17381;DHT22;8808;52.478;13.378;2023-06-14T10:14:11;20.40;99.90
17381;DHT22;8808;52.478;13.378;2023-06-14T10:16:42;20.20;99.90
17381;DHT22;8808;52.478;13.378;2023-06-14T10:19:16;20.20;99.90
17381;DHT22;8808;52.478;13.378;2023-06-14T10:21:59;20.30;99.90
17381;DHT22;8808;52.478;13.378;2023-06-14T10:24:30;20.40;99.90
17381;DHT22;8808;52.478;13.378;2023-06-14T10:26:59;20.10;99.90
17381;DHT22;8808;52.478;13.378;2023-06-14T10:29:28;20.10;99.90
17381;DHT22;8808;52.478;13.378;2023-06-14T10:31:58;20.10;99.90
17381;DHT22;8808;52.478;13.378;2023-06-14T10:34:26;20.30;99.90
17381;DHT22;8808;52.478;13.378;2023-06-14T10:37:04;20.50;99.90
17381;DHT22;8808;52.478;13.378;2023-06-14T10:39:31;21.20;99.90
17381;DHT22;8808;52.478;13.378;2023-06-14T10:42:01;20.80;99.90
17381;DHT22;8808;52.478;13.378;2023-06-14T10:44:41;20.50;99.90
17381;DHT22;8808;52.478;13.378;2023-06-14T10:47:23;20.30;99.90
17381;DHT22;8808;52.478;13.378;2023-06-14T10:49:52;20.00;99.90
17381;DHT22;8808;52.478;13.378;2023-06-14T10:52:24;20.00;99.90
17381;DHT22;8808;52.478;13.378;2023-06-14T10:55:04;20.10;99.90
17381;DHT22;8808;52.478;13.378;2023-06-14T10:57:32;20.30;99.90
17381;DHT22;8808;52.478;13.378;2023-06-14T11:00:01;20.30;99.90
17381;DHT22;8808;52.478;13.378;2023-06-14T11:03:08;20.20;99.90
17381;DHT22;8808;52.478;13.378;2023-06-14T11:05:49;20.30;99.90
17381;DHT22;8808;52.478;13.378;2023-06-14T11:11:14;20.50;99.90
17381;DHT22;8808;52.478;13.378;2023-06-14T11:13:44;20.50;99.90
17381;DHT22;8808;52.478;13.378;2023-06-14T11:16:13;20.70;99.90
17381;DHT22;8808;52.478;13.378;2023-06-14T11:18:41;20.80;99.90
17381;DHT22;8808;52.478;13.378;2023-06-14T11:21:08;20.90;99.90
17381;DHT22;8808;52.478;13.378;2023-06-14T11:23:35;20.70;99.90
17381;DHT22;8808;52.478;13.378;2023-06-14T11:26:02;20.80;99.90
17381;DHT22;8808;52.478;13.378;2023-06-14T11:28:37;20.70;99.90
17381;DHT22;8808;52.478;13.378;2023-06-14T11:31:05;20.80;99.90
17381;DHT22;8808;52.478;13.378;2023-06-14T11:33:33;20.90;99.90
17381;DHT22;8808;52.478;13.378;2023-06-14T11:36:02;21.00;99.90
17381;DHT22;8808;52.478;13.378;2023-06-14T11:38:29;21.00;99.90
17381;DHT22;8808;52.478;13.378;2023-06-14T11:40:59;21.00;99.90
17381;DHT22;8808;52.478;13.378;2023-06-14T11:43:26;20.90;99.90
17381;DHT22;8808;52.478;13.378;2023-06-14T11:45:53;21.00;99.90
17381;DHT22;8808;52.478;13.378;2023-06-14T11:48:20;21.20;98.90
17381;DHT22;8808;52.478;13.378;2023-06-14T11:50:51;20.80;99.20
17381;DHT22;8808;52.478;13.378;2023-06-14T11:53:18;21.30;99.90
17381;DHT22;8808;52.478;13.378;2023-06-14T11:55:45;21.30;99.20
17381;DHT22;8808;52.478;13.378;2023-06-14T11:58:13;21.10;99.90
17381;DHT22;8808;52.478;13.378;2023-06-14T12:00:40;21.40;99.90
17381;DHT22;8808;52.478;13.378;2023-06-14T12:03:08;21.50;98.40
17381;DHT22;8808;52.478;13.378;2023-06-14T12:05:35;22.10;99.90
17381;DHT22;8808;52.478;13.378;2023-06-14T12:08:06;21.50;96.70
17381;DHT22;8808;52.478;13.378;2023-06-14T12:10:40;21.50;97.00
17381;DHT22;8808;52.478;13.378;2023-06-14T12:13:09;21.70;97.30
17381;DHT22;8808;52.478;13.378;2023-06-14T12:15:36;21.90;95.70
17381;DHT22;8808;52.478;13.378;2023-06-14T12:18:05;22.10;99.90
17381;DHT22;8808;52.478;13.378;2023-06-14T12:20:33;22.00;99.90
17381;DHT22;8808;52.478;13.378;2023-06-14T12:23:04;22.30;96.20
17381;DHT22;8808;52.478;13.378;2023-06-14T12:25:33;22.30;93.50
17381;DHT22;8808;52.478;13.378;2023-06-14T12:28:05;23.00;94.00
17381;DHT22;8808;52.478;13.378;2023-06-14T12:30:32;23.30;92.70
17381;DHT22;8808;52.478;13.378;2023-06-14T12:32:59;23.40;90.90
17381;DHT22;8808;52.478;13.378;2023-06-14T12:35:26;23.60;91.60
17381;DHT22;8808;52.478;13.378;2023-06-14T12:37:53;23.70;90.60
17381;DHT22;8808;52.478;13.378;2023-06-14T12:40:21;23.40;87.70
17381;DHT22;8808;52.478;13.378;2023-06-14T12:42:48;23.50;90.90
17381;DHT22;8808;52.478;13.378;2023-06-14T12:45:15;23.70;89.50
17381;DHT22;8808;52.478;13.378;2023-06-14T12:47:42;23.80;86.40
17381;DHT22;8808;52.478;13.378;2023-06-14T12:50:09;24.00;89.60
17381;DHT22;8808;52.478;13.378;2023-06-14T12:52:36;23.30;86.90
17381;DHT22;8808;52.478;13.378;2023-06-14T12:55:04;23.30;85.40
17381;DHT22;8808;52.478;13.378;2023-06-14T12:57:32;23.40;88.60
17381;DHT22;8808;52.478;13.378;2023-06-14T13:00:02;23.30;85.10
17381;DHT22;8808;52.478;13.378;2023-06-14T13:02:29;23.20;87.30
17381;DHT22;8808;52.478;13.378;2023-06-14T13:04:56;23.00;88.60
17381;DHT22;8808;52.478;13.378;2023-06-14T13:07:24;23.00;83.10
17381;DHT22;8808;52.478;13.378;2023-06-14T13:09:51;22.90;85.10
17381;DHT22;8808;52.478;13.378;2023-06-14T13:12:18;22.90;84.60
17381;DHT22;8808;52.478;13.378;2023-06-14T13:14:47;22.90;81.80
17381;DHT22;8808;52.478;13.378;2023-06-14T13:17:13;22.90;85.30
17381;DHT22;8808;52.478;13.378;2023-06-14T13:19:40;22.80;81.50
17381;DHT22;8808;52.478;13.378;2023-06-14T13:22:08;22.90;86.90
17381;DHT22;8808;52.478;13.378;2023-06-14T13:24:35;23.20;87.70
17381;DHT22;8808;52.478;13.378;2023-06-14T13:27:03;23.20;78.70
17381;DHT22;8808;52.478;13.378;2023-06-14T13:29:30;23.00;78.50
17381;DHT22;8808;52.478;13.378;2023-06-14T13:32:00;23.10;82.10
17381;DHT22;8808;52.478;13.378;2023-06-14T13:34:27;23.00;76.40
17381;DHT22;8808;52.478;13.378;2023-06-14T13:36:54;23.00;85.90
17381;DHT22;8808;52.478;13.378;2023-06-14T13:39:21;23.30;79.40
17381;DHT22;8808;52.478;13.378;2023-06-14T13:41:48;23.50;81.80
17381;DHT22;8808;52.478;13.378;2023-06-14T13:44:15;23.70;78.10
17381;DHT22;8808;52.478;13.378;2023-06-14T13:46:44;23.50;78.40
17381;DHT22;8808;52.478;13.378;2023-06-14T13:49:12;23.30;77.40
17381;DHT22;8808;52.478;13.378;2023-06-14T13:51:39;23.00;77.00
17381;DHT22;8808;52.478;13.378;2023-06-14T13:54:06;23.10;75.70
17381;DHT22;8808;52.478;13.378;2023-06-14T13:56:33;23.20;76.70
17381;DHT22;8808;52.478;13.378;2023-06-14T13:59:00;23.40;76.00
17381;DHT22;8808;52.478;13.378;2023-06-14T14:01:27;23.40;75.00
17381;DHT22;8808;52.478;13.378;2023-06-14T14:03:54;23.20;75.80
17381;DHT22;8808;52.478;13.378;2023-06-14T14:06:23;23.10;75.80
17381;DHT22;8808;52.478;13.378;2023-06-14T14:08:50;23.00;76.10
17381;DHT22;8808;52.478;13.378;2023-06-14T14:11:18;22.90;76.40
17381;DHT22;8808;52.478;13.378;2023-06-14T14:13:45;23.10;76.00
17381;DHT22;8808;52.478;13.378;2023-06-14T14:16:13;23.00;75.30
17381;DHT22;8808;52.478;13.378;2023-06-14T14:18:40;23.10;78.00
17381;DHT22;8808;52.478;13.378;2023-06-14T14:21:07;23.00;76.10
17381;DHT22;8808;52.478;13.378;2023-06-14T14:23:36;23.10;76.50
17381;DHT22;8808;52.478;13.378;2023-06-14T14:26:03;23.20;74.60
17381;DHT22;8808;52.478;13.378;2023-06-14T14:28:30;23.00;74.20
17381;DHT22;8808;52.478;13.378;2023-06-14T14:30:58;22.90;75.20
17381;DHT22;8808;52.478;13.378;2023-06-14T14:33:25;22.90;75.80
17381;DHT22;8808;52.478;13.378;2023-06-14T14:35:52;22.90;75.30
17381;DHT22;8808;52.478;13.378;2023-06-14T14:38:19;22.90;75.90
17381;DHT22;8808;52.478;13.378;2023-06-14T14:40:48;22.90;75.00
17381;DHT22;8808;52.478;13.378;2023-06-14T14:43:15;23.00;75.00
17381;DHT22;8808;52.478;13.378;2023-06-14T14:45:42;22.90;74.60
17381;DHT22;8808;52.478;13.378;2023-06-14T14:48:09;22.90;74.70
17381;DHT22;8808;52.478;13.378;2023-06-14T14:50:36;23.00;74.10
17381;DHT22;8808;52.478;13.378;2023-06-14T14:53:05;23.00;74.30
17381;DHT22;8808;52.478;13.378;2023-06-14T14:55:32;23.10;76.20
17381;DHT22;8808;52.478;13.378;2023-06-14T14:58:01;23.10;75.50
17381;DHT22;8808;52.478;13.378;2023-06-14T15:00:29;23.10;73.70
17381;DHT22;8808;52.478;13.378;2023-06-14T15:02:56;23.00;75.80
17381;DHT22;8808;52.478;13.378;2023-06-14T15:05:23;23.00;75.20
17381;DHT22;8808;52.478;13.378;2023-06-14T15:07:50;22.90;72.20
17381;DHT22;8808;52.478;13.378;2023-06-14T15:10:17;22.90;74.00
17381;DHT22;8808;52.478;13.378;2023-06-14T15:12:44;22.90;76.00
17381;DHT22;8808;52.478;13.378;2023-06-14T15:15:12;22.90;76.60
17381;DHT22;8808;52.478;13.378;2023-06-14T15:17:39;23.30;76.60
17381;DHT22;8808;52.478;13.378;2023-06-14T15:20:07;23.40;77.10
17381;DHT22;8808;52.478;13.378;2023-06-14T15:22:34;23.20;75.60
17381;DHT22;8808;52.478;13.378;2023-06-14T15:25:01;23.00;77.10
17381;DHT22;8808;52.478;13.378;2023-06-14T15:27:28;22.80;76.00
17381;DHT22;8808;52.478;13.378;2023-06-14T15:29:55;22.80;78.00
17381;DHT22;8808;52.478;13.378;2023-06-14T15:32:24;22.90;76.70
17381;DHT22;8808;52.478;13.378;2023-06-14T15:34:51;23.10;77.00
17381;DHT22;8808;52.478;13.378;2023-06-14T15:37:18;23.20;77.90
17381;DHT22;8808;52.478;13.378;2023-06-14T15:39:45;22.90;78.60